sensor_id;sensor_type;location;lat;lon;timestamp;P1;durP1;ratioP1;P2;durP2;ratioP2
1410;SDS011;700;51.906;8.404;2023-05-07T00:04:36;10.47;;;9.40;;
1410;SDS011;700;51.906;8.404;2023-05-07T00:09:41;10.77;;;8.70;;
1410;SDS011;700;51.906;8.404;2023-05-07T00:14:42;10.67;;;9.60;;
1410;SDS011;700;51.906;8.404;2023-05-07T00:19:45;12.60;;;10.70;;
1410;SDS011;700;51.906;8.404;2023-05-07T00:24:46;13.03;;;11.63;;
1410;SDS011;700;51.906;8.404;2023-05-07T00:29:49;11.47;;;9.93;;
1410;SDS011;700;51.906;8.404;2023-05-07T00:34:50;15.67;;;12.17;;
1410;SDS011;700;51.906;8.404;2023-05-07T00:39:51;12.00;;;10.90;;
1410;SDS011;700;51.906;8.404;2023-05-07T00:44:53;12.27;;;11.10;;
1410;SDS011;700;51.906;8.404;2023-05-07T00:49:57;13.03;;;11.40;;
1410;SDS011;700;51.906;8.404;2023-05-07T00:55:01;13.87;;;12.40;;
1410;SDS011;700;51.906;8.404;2023-05-07T01:00:08;12.57;;;11.37;;
1410;SDS011;700;51.906;8.404;2023-05-07T01:05:13;14.00;;;12.60;;
1410;SDS011;700;51.906;8.404;2023-05-07T01:10:16;13.57;;;12.20;;
1410;SDS011;700;51.906;8.404;2023-05-07T01:15:17;15.20;;;12.90;;
1410;SDS011;700;51.906;8.404;2023-05-07T01:20:18;14.00;;;12.57;;
1410;SDS011;700;51.906;8.404;2023-05-07T01:25:19;14.07;;;12.30;;
1410;SDS011;700;51.906;8.404;2023-05-07T01:30:25;15.90;;;12.70;;
1410;SDS011;700;51.906;8.404;2023-05-07T01:35:29;14.50;;;13.00;;
1410;SDS011;700;51.906;8.404;2023-05-07T01:40:40;13.83;;;12.43;;
1410;SDS011;700;51.906;8.404;2023-05-07T01:45:41;14.20;;;12.80;;
1410;SDS011;700;51.906;8.404;2023-05-07T01:50:44;15.53;;;14.03;;
1410;SDS011;700;51.906;8.404;2023-05-07T01:55:47;15.07;;;12.03;;
1410;SDS011;700;51.906;8.404;2023-05-07T02:00:47;14.93;;;13.43;;
1410;SDS011;700;51.906;8.404;2023-05-07T02:05:50;15.33;;;13.77;;
1410;SDS011;700;51.906;8.404;2023-05-07T02:10:51;15.00;;;13.40;;
1410;SDS011;700;51.906;8.404;2023-05-07T02:15:52;17.80;;;14.40;;
1410;SDS011;700;51.906;8.404;2023-05-07T02:20:53;15.87;;;14.47;;
1410;SDS011;700;51.906;8.404;2023-05-07T02:25:54;17.70;;;14.93;;
1410;SDS011;700;51.906;8.404;2023-05-07T02:30:57;16.87;;;13.93;;
1410;SDS011;700;51.906;8.404;2023-05-07T02:36:08;16.80;;;15.10;;
1410;SDS011;700;51.906;8.404;2023-05-07T02:41:10;17.10;;;14.17;;
1410;SDS011;700;51.906;8.404;2023-05-07T02:46:13;17.10;;;15.23;;
1410;SDS011;700;51.906;8.404;2023-05-07T02:51:16;17.10;;;15.40;;
1410;SDS011;700;51.906;8.404;2023-05-07T02:56:20;16.67;;;15.00;;
1410;SDS011;700;51.906;8.404;2023-05-07T03:01:21;17.10;;;15.40;;
1410;SDS011;700;51.906;8.404;2023-05-07T03:06:25;17.50;;;15.60;;
1410;SDS011;700;51.906;8.404;2023-05-07T03:11:26;17.40;;;15.80;;
1410;SDS011;700;51.906;8.404;2023-05-07T03:16:29;17.13;;;15.10;;
1410;SDS011;700;51.906;8.404;2023-05-07T03:21:30;17.07;;;15.40;;
1410;SDS011;700;51.906;8.404;2023-05-07T03:26:34;17.80;;;16.20;;
1410;SDS011;700;51.906;8.404;2023-05-07T03:31:39;17.20;;;15.50;;
1410;SDS011;700;51.906;8.404;2023-05-07T03:36:42;17.17;;;15.57;;
1410;SDS011;700;51.906;8.404;2023-05-07T03:41:48;17.83;;;16.03;;
1410;SDS011;700;51.906;8.404;2023-05-07T03:46:50;18.40;;;16.50;;
1410;SDS011;700;51.906;8.404;2023-05-07T03:51:51;18.00;;;16.23;;
1410;SDS011;700;51.906;8.404;2023-05-07T03:56:51;17.63;;;15.93;;
1410;SDS011;700;51.906;8.404;2023-05-07T04:01:52;16.53;;;14.90;;
1410;SDS011;700;51.906;8.404;2023-05-07T04:06:53;17.10;;;15.27;;
1410;SDS011;700;51.906;8.404;2023-05-07T04:11:53;19.00;;;15.37;;
1410;SDS011;700;51.906;8.404;2023-05-07T04:16:54;16.07;;;14.57;;
1410;SDS011;700;51.906;8.404;2023-05-07T04:21:57;17.13;;;15.33;;
1410;SDS011;700;51.906;8.404;2023-05-07T04:26:57;17.33;;;15.67;;
1410;SDS011;700;51.906;8.404;2023-05-07T04:32:01;16.73;;;14.90;;
1410;SDS011;700;51.906;8.404;2023-05-07T04:37:01;18.30;;;16.50;;
1410;SDS011;700;51.906;8.404;2023-05-07T04:42:02;18.83;;;16.93;;
1410;SDS011;700;51.906;8.404;2023-05-07T04:47:10;20.93;;;18.63;;
1410;SDS011;700;51.906;8.404;2023-05-07T04:52:11;22.70;;;20.30;;
1410;SDS011;700;51.906;8.404;2023-05-07T04:57:12;22.30;;;18.80;;
1410;SDS011;700;51.906;8.404;2023-05-07T05:02:16;21.00;;;18.57;;
1410;SDS011;700;51.906;8.404;2023-05-07T05:07:17;19.63;;;17.60;;
1410;SDS011;700;51.906;8.404;2023-05-07T05:12:20;19.27;;;17.17;;
1410;SDS011;700;51.906;8.404;2023-05-07T05:17:23;20.23;;;18.13;;
1410;SDS011;700;51.906;8.404;2023-05-07T05:22:23;20.77;;;18.70;;
1410;SDS011;700;51.906;8.404;2023-05-07T05:27:29;20.50;;;18.40;;
1410;SDS011;700;51.906;8.404;2023-05-07T05:32:30;20.70;;;18.37;;
1410;SDS011;700;51.906;8.404;2023-05-07T05:37:33;20.10;;;18.10;;
1410;SDS011;700;51.906;8.404;2023-05-07T05:42:33;20.40;;;18.50;;
1410;SDS011;700;51.906;8.404;2023-05-07T05:47:37;20.37;;;18.27;;
1410;SDS011;700;51.906;8.404;2023-05-07T05:52:40;21.23;;;19.03;;
1410;SDS011;700;51.906;8.404;2023-05-07T05:57:44;21.97;;;18.70;;
1410;SDS011;700;51.906;8.404;2023-05-07T06:02:45;21.40;;;18.13;;
1410;SDS011;700;51.906;8.404;2023-05-07T06:07:45;19.47;;;17.60;;
1410;SDS011;700;51.906;8.404;2023-05-07T06:12:46;20.57;;;17.63;;
1410;SDS011;700;51.906;8.404;2023-05-07T06:17:47;19.10;;;17.20;;
1410;SDS011;700;51.906;8.404;2023-05-07T06:22:49;20.97;;;18.80;;
1410;SDS011;700;51.906;8.404;2023-05-07T06:27:49;21.30;;;19.27;;
1410;SDS011;700;51.906;8.404;2023-05-07T06:32:50;18.90;;;16.90;;
1410;SDS011;700;51.906;8.404;2023-05-07T06:37:53;18.83;;;16.90;;
1410;SDS011;700;51.906;8.404;2023-05-07T06:42:56;17.50;;;15.83;;
1410;SDS011;700;51.906;8.404;2023-05-07T06:47:56;20.33;;;18.13;;
1410;SDS011;700;51.906;8.404;2023-05-07T06:52:57;23.90;;;16.60;;
1410;SDS011;700;51.906;8.404;2023-05-07T06:58:00;18.90;;;16.90;;
1410;SDS011;700;51.906;8.404;2023-05-07T07:03:00;17.10;;;15.13;;
1410;SDS011;700;51.906;8.404;2023-05-07T07:08:01;18.43;;;16.70;;
1410;SDS011;700;51.906;8.404;2023-05-07T07:13:02;16.80;;;15.00;;
1410;SDS011;700;51.906;8.404;2023-05-07T07:18:02;16.00;;;14.23;;
1410;SDS011;700;51.906;8.404;2023-05-07T07:23:03;15.17;;;13.57;;
1410;SDS011;700;51.906;8.404;2023-05-07T07:28:06;18.13;;;16.30;;
1410;SDS011;700;51.906;8.404;2023-05-07T07:33:07;16.77;;;14.97;;
1410;SDS011;700;51.906;8.404;2023-05-07T07:38:10;15.73;;;14.13;;
1410;SDS011;700;51.906;8.404;2023-05-07T07:43:13;16.33;;;13.93;;
1410;SDS011;700;51.906;8.404;2023-05-07T07:48:14;14.50;;;13.10;;
1410;SDS011;700;51.906;8.404;2023-05-07T07:53:14;14.87;;;13.40;;
1410;SDS011;700;51.906;8.404;2023-05-07T07:58:15;16.00;;;12.67;;
1410;SDS011;700;51.906;8.404;2023-05-07T08:03:16;13.63;;;12.27;;
1410;SDS011;700;51.906;8.404;2023-05-07T08:08:19;13.93;;;12.53;;
1410;SDS011;700;51.906;8.404;2023-05-07T08:13:21;13.60;;;12.30;;
1410;SDS011;700;51.906;8.404;2023-05-07T08:18:25;13.80;;;12.40;;
1410;SDS011;700;51.906;8.404;2023-05-07T08:23:26;13.30;;;12.07;;
1410;SDS011;700;51.906;8.404;2023-05-07T08:28:26;12.03;;;10.87;;
1410;SDS011;700;51.906;8.404;2023-05-07T08:33:27;10.73;;;9.83;;
1410;SDS011;700;51.906;8.404;2023-05-07T08:38:28;10.80;;;9.90;;
1410;SDS011;700;51.906;8.404;2023-05-07T08:43:28;11.47;;;10.37;;
1410;SDS011;700;51.906;8.404;2023-05-07T08:48:31;11.50;;;10.30;;
1410;SDS011;700;51.906;8.404;2023-05-07T08:53:38;10.83;;;9.83;;
1410;SDS011;700;51.906;8.404;2023-05-07T08:58:45;10.40;;;9.40;;
1410;SDS011;700;51.906;8.404;2023-05-07T09:03:50;10.73;;;9.50;;
1410;SDS011;700;51.906;8.404;2023-05-07T09:08:53;10.07;;;9.07;;
1410;SDS011;700;51.906;8.404;2023-05-07T09:13:55;8.83;;;8.13;;
1410;SDS011;700;51.906;8.404;2023-05-07T09:18:57;9.40;;;8.50;;
1410;SDS011;700;51.906;8.404;2023-05-07T09:24:03;11.97;;;9.43;;
1410;SDS011;700;51.906;8.404;2023-05-07T09:29:04;8.53;;;7.73;;
1410;SDS011;700;51.906;8.404;2023-05-07T09:34:05;9.10;;;8.30;;
1410;SDS011;700;51.906;8.404;2023-05-07T09:39:05;8.53;;;7.83;;
1410;SDS011;700;51.906;8.404;2023-05-07T09:44:06;9.40;;;8.60;;
1410;SDS011;700;51.906;8.404;2023-05-07T09:49:07;9.90;;;8.87;;
1410;SDS011;700;51.906;8.404;2023-05-07T09:54:13;9.53;;;8.73;;
1410;SDS011;700;51.906;8.404;2023-05-07T09:59:17;9.47;;;8.37;;
1410;SDS011;700;51.906;8.404;2023-05-07T10:04:23;8.40;;;7.80;;
1410;SDS011;700;51.906;8.404;2023-05-07T10:09:26;8.90;;;8.00;;
1410;SDS011;700;51.906;8.404;2023-05-07T10:14:26;8.20;;;7.50;;
1410;SDS011;700;51.906;8.404;2023-05-07T10:19:30;8.80;;;8.00;;
1410;SDS011;700;51.906;8.404;2023-05-07T10:24:33;8.73;;;7.93;;
1410;SDS011;700;51.906;8.404;2023-05-07T10:34:45;9.90;;;9.03;;
1410;SDS011;700;51.906;8.404;2023-05-07T10:39:51;8.40;;;7.70;;
1410;SDS011;700;51.906;8.404;2023-05-07T10:44:52;9.30;;;8.50;;
1410;SDS011;700;51.906;8.404;2023-05-07T10:50:35;9.27;;;8.57;;
1410;SDS011;700;51.906;8.404;2023-05-07T11:05:25;8.27;;;7.57;;
1410;SDS011;700;51.906;8.404;2023-05-07T11:15:54;8.73;;;8.03;;
1410;SDS011;700;51.906;8.404;2023-05-07T11:20:56;7.70;;;7.10;;
1410;SDS011;700;51.906;8.404;2023-05-07T11:26:07;6.30;;;5.80;;
1410;SDS011;700;51.906;8.404;2023-05-07T11:31:11;6.97;;;6.47;;
1410;SDS011;700;51.906;8.404;2023-05-07T11:36:21;7.40;;;6.70;;
1410;SDS011;700;51.906;8.404;2023-05-07T11:41:32;6.33;;;5.83;;
1410;SDS011;700;51.906;8.404;2023-05-07T11:46:34;6.17;;;5.67;;
1410;SDS011;700;51.906;8.404;2023-05-07T11:51:35;6.03;;;5.57;;
1410;SDS011;700;51.906;8.404;2023-05-07T11:56:36;8.20;;;6.30;;
1410;SDS011;700;51.906;8.404;2023-05-07T12:01:37;5.77;;;5.37;;
1410;SDS011;700;51.906;8.404;2023-05-07T12:06:40;5.60;;;5.10;;
1410;SDS011;700;51.906;8.404;2023-05-07T12:11:43;6.73;;;6.13;;
1410;SDS011;700;51.906;8.404;2023-05-07T12:16:46;5.13;;;4.67;;
1410;SDS011;700;51.906;8.404;2023-05-07T12:21:47;4.93;;;4.53;;
1410;SDS011;700;51.906;8.404;2023-05-07T12:26:51;4.90;;;4.50;;
1410;SDS011;700;51.906;8.404;2023-05-07T12:31:54;5.87;;;5.37;;
1410;SDS011;700;51.906;8.404;2023-05-07T12:36:55;4.60;;;4.20;;
1410;SDS011;700;51.906;8.404;2023-05-07T12:41:56;4.27;;;3.97;;
1410;SDS011;700;51.906;8.404;2023-05-07T12:47:01;4.30;;;4.00;;
1410;SDS011;700;51.906;8.404;2023-05-07T12:52:02;5.53;;;4.97;;
1410;SDS011;700;51.906;8.404;2023-05-07T12:57:07;4.70;;;4.23;;
1410;SDS011;700;51.906;8.404;2023-05-07T13:02:08;5.13;;;4.57;;
1410;SDS011;700;51.906;8.404;2023-05-07T13:07:09;4.00;;;3.70;;
1410;SDS011;700;51.906;8.404;2023-05-07T13:12:09;4.27;;;3.90;;
1410;SDS011;700;51.906;8.404;2023-05-07T13:17:10;4.10;;;3.70;;
1410;SDS011;700;51.906;8.404;2023-05-07T13:22:11;4.03;;;3.50;;
1410;SDS011;700;51.906;8.404;2023-05-07T13:27:11;3.43;;;3.13;;
1410;SDS011;700;51.906;8.404;2023-05-07T13:32:12;3.40;;;3.10;;
1410;SDS011;700;51.906;8.404;2023-05-07T13:37:12;3.10;;;2.90;;
1410;SDS011;700;51.906;8.404;2023-05-07T13:42:13;3.70;;;3.40;;
1410;SDS011;700;51.906;8.404;2023-05-07T13:47:16;3.60;;;3.13;;
1410;SDS011;700;51.906;8.404;2023-05-07T13:52:19;4.13;;;3.73;;
1410;SDS011;700;51.906;8.404;2023-05-07T13:57:20;4.03;;;3.70;;
1410;SDS011;700;51.906;8.404;2023-05-07T14:02:25;3.70;;;3.40;;
1410;SDS011;700;51.906;8.404;2023-05-07T14:07:26;3.43;;;3.13;;
1410;SDS011;700;51.906;8.404;2023-05-07T14:12:27;3.70;;;3.40;;
1410;SDS011;700;51.906;8.404;2023-05-07T14:17:27;4.07;;;3.60;;
1410;SDS011;700;51.906;8.404;2023-05-07T14:22:30;4.20;;;3.60;;
1410;SDS011;700;51.906;8.404;2023-05-07T14:27:36;3.77;;;3.37;;
1410;SDS011;700;51.906;8.404;2023-05-07T14:32:38;6.03;;;4.30;;
1410;SDS011;700;51.906;8.404;2023-05-07T14:37:39;4.23;;;3.73;;
1410;SDS011;700;51.906;8.404;2023-05-07T14:42:42;4.30;;;3.90;;
1410;SDS011;700;51.906;8.404;2023-05-07T14:47:45;4.27;;;3.87;;
1410;SDS011;700;51.906;8.404;2023-05-07T14:52:46;4.73;;;4.30;;
1410;SDS011;700;51.906;8.404;2023-05-07T14:57:49;4.90;;;4.50;;
1410;SDS011;700;51.906;8.404;2023-05-07T15:02:52;5.20;;;4.70;;
1410;SDS011;700;51.906;8.404;2023-05-07T15:07:53;5.73;;;5.10;;
1410;SDS011;700;51.906;8.404;2023-05-07T15:12:54;5.60;;;4.97;;
1410;SDS011;700;51.906;8.404;2023-05-07T15:17:57;5.70;;;5.13;;
1410;SDS011;700;51.906;8.404;2023-05-07T15:23:00;6.23;;;5.60;;
1410;SDS011;700;51.906;8.404;2023-05-07T15:28:07;5.60;;;5.13;;
1410;SDS011;700;51.906;8.404;2023-05-07T15:33:10;5.60;;;5.10;;
1410;SDS011;700;51.906;8.404;2023-05-07T15:38:11;5.87;;;5.27;;
1410;SDS011;700;51.906;8.404;2023-05-07T15:43:14;7.50;;;6.80;;
1410;SDS011;700;51.906;8.404;2023-05-07T15:48:19;6.80;;;6.30;;
1410;SDS011;700;51.906;8.404;2023-05-07T15:53:22;7.77;;;7.07;;
1410;SDS011;700;51.906;8.404;2023-05-07T15:58:23;6.40;;;5.90;;
1410;SDS011;700;51.906;8.404;2023-05-07T16:03:23;6.93;;;6.10;;
1410;SDS011;700;51.906;8.404;2023-05-07T16:08:28;8.50;;;6.20;;
1410;SDS011;700;51.906;8.404;2023-05-07T16:13:28;8.13;;;7.43;;
1410;SDS011;700;51.906;8.404;2023-05-07T16:18:29;7.50;;;6.87;;
1410;SDS011;700;51.906;8.404;2023-05-07T16:23:30;7.20;;;6.60;;
1410;SDS011;700;51.906;8.404;2023-05-07T16:28:30;7.90;;;7.20;;
1410;SDS011;700;51.906;8.404;2023-05-07T16:33:36;7.43;;;6.77;;
1410;SDS011;700;51.906;8.404;2023-05-07T16:38:41;8.60;;;7.80;;
1410;SDS011;700;51.906;8.404;2023-05-07T16:43:46;8.20;;;7.50;;
1410;SDS011;700;51.906;8.404;2023-05-07T16:48:49;9.60;;;8.03;;
1410;SDS011;700;51.906;8.404;2023-05-07T16:53:50;8.27;;;7.47;;
1410;SDS011;700;51.906;8.404;2023-05-07T16:58:53;9.20;;;8.37;;
1410;SDS011;700;51.906;8.404;2023-05-07T17:03:54;9.33;;;8.53;;
1410;SDS011;700;51.906;8.404;2023-05-07T17:08:57;12.03;;;10.53;;
1410;SDS011;700;51.906;8.404;2023-05-07T17:14:00;9.30;;;8.40;;
1410;SDS011;700;51.906;8.404;2023-05-07T17:19:00;9.37;;;8.37;;
1410;SDS011;700;51.906;8.404;2023-05-07T17:24:01;9.30;;;8.40;;
1410;SDS011;700;51.906;8.404;2023-05-07T17:29:02;8.87;;;8.10;;
1410;SDS011;700;51.906;8.404;2023-05-07T17:34:03;11.20;;;9.40;;
1410;SDS011;700;51.906;8.404;2023-05-07T17:39:03;8.63;;;7.83;;
1410;SDS011;700;51.906;8.404;2023-05-07T17:44:04;9.77;;;8.87;;
1410;SDS011;700;51.906;8.404;2023-05-07T17:49:05;9.47;;;8.57;;
1410;SDS011;700;51.906;8.404;2023-05-07T17:54:05;8.73;;;8.00;;
1410;SDS011;700;51.906;8.404;2023-05-07T17:59:06;9.10;;;8.33;;
1410;SDS011;700;51.906;8.404;2023-05-07T18:04:09;9.63;;;8.70;;
1410;SDS011;700;51.906;8.404;2023-05-07T18:09:09;9.40;;;8.60;;
1410;SDS011;700;51.906;8.404;2023-05-07T18:14:10;9.80;;;7.93;;
1410;SDS011;700;51.906;8.404;2023-05-07T18:19:13;9.37;;;8.57;;
1410;SDS011;700;51.906;8.404;2023-05-07T18:24:16;9.13;;;8.33;;
1410;SDS011;700;51.906;8.404;2023-05-07T18:29:17;9.73;;;8.67;;
1410;SDS011;700;51.906;8.404;2023-05-07T18:34:22;8.83;;;8.03;;
1410;SDS011;700;51.906;8.404;2023-05-07T18:39:23;8.83;;;8.13;;
1410;SDS011;700;51.906;8.404;2023-05-07T18:44:23;7.97;;;7.20;;
1410;SDS011;700;51.906;8.404;2023-05-07T18:49:24;8.23;;;7.53;;
1410;SDS011;700;51.906;8.404;2023-05-07T18:54:25;9.83;;;8.93;;
1410;SDS011;700;51.906;8.404;2023-05-07T18:59:26;9.40;;;8.53;;
1410;SDS011;700;51.906;8.404;2023-05-07T19:04:26;9.03;;;8.13;;
1410;SDS011;700;51.906;8.404;2023-05-07T19:09:31;8.00;;;7.30;;
1410;SDS011;700;51.906;8.404;2023-05-07T19:14:34;8.37;;;7.67;;
1410;SDS011;700;51.906;8.404;2023-05-07T19:19:35;7.63;;;6.93;;
1410;SDS011;700;51.906;8.404;2023-05-07T19:24:38;7.00;;;6.40;;
1410;SDS011;700;51.906;8.404;2023-05-07T19:29:41;7.13;;;6.43;;
1410;SDS011;700;51.906;8.404;2023-05-07T19:34:42;6.67;;;6.07;;
1410;SDS011;700;51.906;8.404;2023-05-07T19:39:45;7.90;;;7.30;;
1410;SDS011;700;51.906;8.404;2023-05-07T19:44:46;7.83;;;7.20;;
1410;SDS011;700;51.906;8.404;2023-05-07T19:49:48;7.73;;;7.03;;
1410;SDS011;700;51.906;8.404;2023-05-07T19:54:49;8.43;;;7.63;;
1410;SDS011;700;51.906;8.404;2023-05-07T19:59:52;7.90;;;7.20;;
1410;SDS011;700;51.906;8.404;2023-05-07T20:04:53;7.63;;;6.93;;
1410;SDS011;700;51.906;8.404;2023-05-07T20:09:54;7.40;;;6.70;;
1410;SDS011;700;51.906;8.404;2023-05-07T20:14:54;7.63;;;6.93;;
1410;SDS011;700;51.906;8.404;2023-05-07T20:19:55;7.20;;;6.60;;
1410;SDS011;700;51.906;8.404;2023-05-07T20:24:58;8.10;;;7.40;;
1410;SDS011;700;51.906;8.404;2023-05-07T20:30:01;8.57;;;7.73;;
1410;SDS011;700;51.906;8.404;2023-05-07T20:35:04;9.00;;;8.10;;
1410;SDS011;700;51.906;8.404;2023-05-07T20:40:06;8.40;;;7.50;;
1410;SDS011;700;51.906;8.404;2023-05-07T20:45:09;10.90;;;8.00;;
1410;SDS011;700;51.906;8.404;2023-05-07T20:50:12;7.87;;;7.17;;
1410;SDS011;700;51.906;8.404;2023-05-07T20:55:13;8.67;;;7.87;;
1410;SDS011;700;51.906;8.404;2023-05-07T21:00:14;9.37;;;8.43;;
1410;SDS011;700;51.906;8.404;2023-05-07T21:05:16;7.80;;;7.10;;
1410;SDS011;700;51.906;8.404;2023-05-07T21:10:16;7.70;;;7.10;;
1410;SDS011;700;51.906;8.404;2023-05-07T21:15:20;7.90;;;7.20;;
1410;SDS011;700;51.906;8.404;2023-05-07T21:20:20;7.93;;;7.30;;
1410;SDS011;700;51.906;8.404;2023-05-07T21:25:21;7.93;;;7.23;;
1410;SDS011;700;51.906;8.404;2023-05-07T21:30:21;7.83;;;7.10;;
1410;SDS011;700;51.906;8.404;2023-05-07T21:35:22;8.40;;;7.70;;
1410;SDS011;700;51.906;8.404;2023-05-07T21:40:25;8.60;;;7.80;;
1410;SDS011;700;51.906;8.404;2023-05-07T21:45:26;7.93;;;7.20;;
1410;SDS011;700;51.906;8.404;2023-05-07T21:50:26;10.03;;;7.37;;
1410;SDS011;700;51.906;8.404;2023-05-07T21:55:27;7.93;;;7.20;;
1410;SDS011;700;51.906;8.404;2023-05-07T22:00:28;7.80;;;7.10;;
1410;SDS011;700;51.906;8.404;2023-05-07T22:05:31;8.57;;;7.87;;
1410;SDS011;700;51.906;8.404;2023-05-07T22:10:31;8.53;;;7.70;;
1410;SDS011;700;51.906;8.404;2023-05-07T22:15:34;8.57;;;7.83;;
1410;SDS011;700;51.906;8.404;2023-05-07T22:20:35;9.40;;;8.40;;
1410;SDS011;700;51.906;8.404;2023-05-07T22:25:36;9.37;;;8.57;;
1410;SDS011;700;51.906;8.404;2023-05-07T22:30:38;9.10;;;8.20;;
1410;SDS011;700;51.906;8.404;2023-05-07T22:35:39;8.40;;;7.60;;
1410;SDS011;700;51.906;8.404;2023-05-07T22:40:40;7.73;;;7.03;;
1410;SDS011;700;51.906;8.404;2023-05-07T22:45:43;8.37;;;7.67;;
1410;SDS011;700;51.906;8.404;2023-05-07T22:50:43;7.13;;;6.53;;
1410;SDS011;700;51.906;8.404;2023-05-07T22:55:44;8.33;;;7.63;;
1410;SDS011;700;51.906;8.404;2023-05-07T23:00:44;9.23;;;8.43;;
1410;SDS011;700;51.906;8.404;2023-05-07T23:05:47;7.70;;;7.00;;
1410;SDS011;700;51.906;8.404;2023-05-07T23:10:53;8.73;;;7.83;;
1410;SDS011;700;51.906;8.404;2023-05-07T23:15:54;8.40;;;7.60;;
1410;SDS011;700;51.906;8.404;2023-05-07T23:20:57;8.80;;;7.90;;
1410;SDS011;700;51.906;8.404;2023-05-07T23:25:58;8.43;;;7.67;;
1410;SDS011;700;51.906;8.404;2023-05-07T23:30:59;8.60;;;7.77;;
1410;SDS011;700;51.906;8.404;2023-05-07T23:36:02;8.23;;;7.53;;
1410;SDS011;700;51.906;8.404;2023-05-07T23:41:05;8.90;;;7.40;;
1410;SDS011;700;51.906;8.404;2023-05-07T23:46:05;8.40;;;7.70;;
1410;SDS011;700;51.906;8.404;2023-05-07T23:51:08;8.87;;;8.13;;
1410;SDS011;700;51.906;8.404;2023-05-07T23:56:11;8.80;;;7.97;;
